createdAt,value
2023-06-04T00:01:05.182Z,100.00
2023-06-04T00:03:19.886Z,100.00
2023-06-04T00:05:26.225Z,100.00
2023-06-04T00:07:29.119Z,100.00
2023-06-04T00:09:32.062Z,100.00
2023-06-04T00:11:36.278Z,100.00
2023-06-04T00:13:40.601Z,100.00
2023-06-04T00:15:43.484Z,100.00
2023-06-04T00:17:46.402Z,100.00
2023-06-04T00:19:49.307Z,100.00
2023-06-04T00:21:52.245Z,100.00
2023-06-04T00:23:55.206Z,100.00
2023-06-04T00:25:58.126Z,100.00
2023-06-04T00:28:01.014Z,100.00
2023-06-04T00:30:06.295Z,100.00
2023-06-04T00:32:10.189Z,100.00
2023-06-04T00:34:13.208Z,100.00
2023-06-04T00:36:16.235Z,100.00
2023-06-04T00:38:19.135Z,100.00
2023-06-04T00:40:22.056Z,100.00
2023-06-04T00:42:25.127Z,100.00
2023-06-04T00:44:28.300Z,100.00
2023-06-04T00:46:32.934Z,100.00
2023-06-04T00:48:38.009Z,100.00
2023-06-04T00:50:41.506Z,100.00
2023-06-04T00:52:44.400Z,100.00
2023-06-04T00:54:47.382Z,100.00
2023-06-04T00:56:50.575Z,100.00
2023-06-04T00:58:54.951Z,100.00
2023-06-04T01:00:58.952Z,100.00
2023-06-04T01:03:07.216Z,100.00
2023-06-04T01:05:14.826Z,100.00
2023-06-04T01:07:18.465Z,100.00
2023-06-04T01:09:22.109Z,100.00
2023-06-04T01:11:35.905Z,100.00
2023-06-04T01:13:38.767Z,100.00
2023-06-04T01:15:41.662Z,100.00
2023-06-04T01:17:48.078Z,100.00
2023-06-04T01:20:16.622Z,100.00
2023-06-04T01:22:26.937Z,100.00
2023-06-04T01:24:30.151Z,100.00
2023-06-04T01:26:33.867Z,100.00
2023-06-04T01:28:37.498Z,100.00
2023-06-04T01:30:43.711Z,100.00
2023-06-04T01:32:48.808Z,100.00
2023-06-04T01:34:51.860Z,100.00
2023-06-04T01:36:56.174Z,100.00
2023-06-04T01:39:00.670Z,100.00
2023-06-04T01:41:03.658Z,100.00
2023-06-04T01:43:06.609Z,100.00
2023-06-04T01:45:10.687Z,100.00
2023-06-04T01:47:13.566Z,100.00
2023-06-04T01:49:16.482Z,100.00
2023-06-04T01:51:19.561Z,100.00
2023-06-04T01:53:23.857Z,100.00
2023-06-04T01:55:27.342Z,100.00
2023-06-04T01:57:30.400Z,100.00
2023-06-04T01:59:35.699Z,100.00
2023-06-04T02:01:38.632Z,100.00
2023-06-04T02:03:42.001Z,100.00
2023-06-04T02:05:45.867Z,100.00
2023-06-04T02:07:48.987Z,100.00
2023-06-04T02:09:53.707Z,100.00
2023-06-04T02:11:56.612Z,100.00
2023-06-04T02:13:59.773Z,100.00
2023-06-04T02:16:02.710Z,100.00
2023-06-04T02:18:17.073Z,100.00
2023-06-04T02:20:20.305Z,100.00
2023-06-04T02:22:23.177Z,100.00
2023-06-04T02:24:26.498Z,100.00
2023-06-04T02:26:30.812Z,100.00
2023-06-04T02:28:33.676Z,100.00
2023-06-04T02:30:36.629Z,100.00
2023-06-04T02:32:40.236Z,100.00
2023-06-04T02:34:43.636Z,100.00
2023-06-04T02:36:49.305Z,100.00
2023-06-04T02:38:52.431Z,100.00
2023-06-04T02:40:55.436Z,100.00
2023-06-04T02:42:59.756Z,100.00
2023-06-04T02:45:02.839Z,100.00
2023-06-04T02:47:06.524Z,100.00
2023-06-04T02:49:09.480Z,100.00
2023-06-04T02:51:12.783Z,100.00
2023-06-04T02:53:15.836Z,100.00
2023-06-04T02:55:18.756Z,100.00
2023-06-04T02:57:21.684Z,100.00
2023-06-04T02:59:26.330Z,100.00
2023-06-04T03:01:29.350Z,100.00
2023-06-04T03:03:32.730Z,100.00
2023-06-04T03:05:37.932Z,100.00
2023-06-04T03:07:43.675Z,100.00
2023-06-04T03:09:46.537Z,100.00
2023-06-04T03:11:49.472Z,100.00
2023-06-04T03:13:52.848Z,100.00
2023-06-04T03:16:02.142Z,100.00
2023-06-04T03:18:06.778Z,100.00
2023-06-04T03:20:10.434Z,100.00
2023-06-04T03:22:13.873Z,100.00
2023-06-04T03:24:17.077Z,100.00
2023-06-04T03:26:20.016Z,100.00
2023-06-04T03:28:22.952Z,100.00
2023-06-04T03:30:26.069Z,100.00
2023-06-04T03:32:35.411Z,100.00
2023-06-04T03:34:38.412Z,100.00
2023-06-04T03:36:41.639Z,100.00
2023-06-04T03:38:44.557Z,100.00
2023-06-04T03:40:47.649Z,100.00
2023-06-04T03:42:51.172Z,100.00
2023-06-04T03:44:56.284Z,100.00
2023-06-04T03:46:59.536Z,100.00
2023-06-04T03:49:04.765Z,100.00
2023-06-04T03:51:08.456Z,100.00
2023-06-04T03:53:11.655Z,100.00
2023-06-04T03:55:14.775Z,100.00
2023-06-04T03:57:18.061Z,100.00
2023-06-04T03:59:20.929Z,100.00
2023-06-04T04:01:24.568Z,100.00
2023-06-04T04:03:32.340Z,100.00
2023-06-04T04:05:38.762Z,100.00
2023-06-04T04:07:41.669Z,100.00
2023-06-04T04:09:44.563Z,100.00
2023-06-04T04:11:47.447Z,100.00
2023-06-04T04:13:51.505Z,100.00
2023-06-04T04:15:55.358Z,100.00
2023-06-04T04:17:58.550Z,100.00
2023-06-04T04:20:02.631Z,100.00
2023-06-04T04:22:07.386Z,100.00
2023-06-04T04:24:10.645Z,100.00
2023-06-04T04:26:18.167Z,100.00
2023-06-04T04:28:24.182Z,100.00
2023-06-04T04:30:27.236Z,100.00
2023-06-04T04:32:30.352Z,100.00
2023-06-04T04:34:33.593Z,100.00
2023-06-04T04:36:37.531Z,100.00
2023-06-04T04:38:42.528Z,100.00
2023-06-04T04:40:45.508Z,100.00
2023-06-04T04:42:50.579Z,100.00
2023-06-04T04:44:54.798Z,100.00
2023-06-04T04:47:00.744Z,100.00
2023-06-04T04:49:04.160Z,100.00
2023-06-04T04:51:07.258Z,100.00
2023-06-04T04:53:10.434Z,100.00
2023-06-04T04:55:15.821Z,100.00
2023-06-04T04:57:21.599Z,100.00
2023-06-04T04:59:28.047Z,100.00
2023-06-04T05:01:32.215Z,100.00
2023-06-04T05:03:36.106Z,100.00
2023-06-04T05:05:39.179Z,100.00
2023-06-04T05:07:42.666Z,100.00
2023-06-04T05:09:46.157Z,100.00
2023-06-04T05:11:51.046Z,100.00
2023-06-04T05:13:53.957Z,100.00
2023-06-04T05:15:57.905Z,100.00
2023-06-04T05:18:04.558Z,96.72
2023-06-04T05:20:12.972Z,99.61
2023-06-04T05:22:20.142Z,93.22
2023-06-04T05:24:24.098Z,78.75
2023-06-04T05:26:29.225Z,67.74
2023-06-04T05:28:36.774Z,60.31
2023-06-04T05:30:42.410Z,61.37
2023-06-04T05:32:46.212Z,54.72
2023-06-04T05:34:52.241Z,55.30
2023-06-04T05:36:55.166Z,49.79
2023-06-04T05:38:58.763Z,49.40
2023-06-04T05:41:07.808Z,46.41
2023-06-04T05:43:13.960Z,47.25
2023-06-04T05:45:18.492Z,47.60
2023-06-04T05:47:22.128Z,46.81
2023-06-04T05:49:26.121Z,43.61
2023-06-04T05:51:30.958Z,42.11
2023-06-04T05:53:33.906Z,42.98
2023-06-04T05:55:38.648Z,41.38
2023-06-04T05:57:44.061Z,41.67
2023-06-04T05:59:47.223Z,39.77
2023-06-04T06:01:54.363Z,39.94
2023-06-04T06:03:58.021Z,41.43
2023-06-04T06:06:03.553Z,40.19
2023-06-04T06:08:07.297Z,38.87
2023-06-04T06:10:11.364Z,38.37
2023-06-04T06:12:14.384Z,35.80
2023-06-04T06:14:19.036Z,36.02
2023-06-04T06:16:22.320Z,36.04
2023-06-04T06:18:26.972Z,37.25
2023-06-04T06:20:30.324Z,35.74
2023-06-04T06:22:33.546Z,34.53
2023-06-04T06:24:36.484Z,34.90
2023-06-04T06:26:39.574Z,34.35
2023-06-04T06:28:45.664Z,33.56
2023-06-04T06:30:49.665Z,32.34
2023-06-04T06:32:56.455Z,31.88
2023-06-04T06:35:01.967Z,33.19
2023-06-04T06:37:05.152Z,32.69
2023-06-04T06:39:08.128Z,33.99
2023-06-04T06:41:11.098Z,32.28
2023-06-04T06:43:14.188Z,33.16
2023-06-04T06:45:17.047Z,33.85
2023-06-04T06:47:20.086Z,33.22
2023-06-04T06:49:23.316Z,32.14
2023-06-04T06:51:27.687Z,31.59
2023-06-04T06:53:30.925Z,34.12
2023-06-04T06:55:34.199Z,34.14
2023-06-04T06:57:37.137Z,31.69
2023-06-04T06:59:40.104Z,32.74
2023-06-04T07:01:43.084Z,32.09
2023-06-04T07:03:47.133Z,31.57
2023-06-04T07:05:50.657Z,31.93
2023-06-04T07:07:55.502Z,34.26
2023-06-04T07:09:58.465Z,34.01
2023-06-04T07:12:01.735Z,30.81
2023-06-04T07:14:04.656Z,31.54
2023-06-04T07:16:07.672Z,29.90
2023-06-04T07:18:10.921Z,31.35
2023-06-04T07:20:13.943Z,29.04
2023-06-04T07:22:17.588Z,29.40
2023-06-04T07:24:21.908Z,28.82
2023-06-04T07:26:26.223Z,30.06
2023-06-04T07:28:29.176Z,28.58
2023-06-04T07:30:32.665Z,27.60
2023-06-04T07:32:36.253Z,28.37
2023-06-04T07:34:40.177Z,28.46
2023-06-04T07:36:43.227Z,28.12
2023-06-04T07:38:46.469Z,27.09
2023-06-04T07:40:50.759Z,26.35
2023-06-04T07:42:53.600Z,28.25
2023-06-04T07:44:56.464Z,26.73
2023-06-04T07:46:59.355Z,27.35
2023-06-04T07:49:02.373Z,26.63
2023-06-04T07:51:05.859Z,27.17
2023-06-04T07:53:08.952Z,25.69
2023-06-04T07:55:11.956Z,25.98
2023-06-04T07:57:16.260Z,24.77
2023-06-04T07:59:19.152Z,27.52
2023-06-04T08:01:22.560Z,25.02
2023-06-04T08:03:25.726Z,26.54
2023-06-04T08:05:29.014Z,27.21
2023-06-04T08:07:32.253Z,24.83
2023-06-04T08:09:35.236Z,25.35
2023-06-04T08:11:38.362Z,25.56
2023-06-04T08:13:43.335Z,26.25
2023-06-04T08:15:46.481Z,24.28
2023-06-04T08:17:49.872Z,26.12
2023-06-04T08:19:54.892Z,24.86
2023-06-04T08:21:58.249Z,25.17
2023-06-04T08:24:01.464Z,24.66
2023-06-04T08:26:05.591Z,26.53
2023-06-04T08:28:10.000Z,24.15
2023-06-04T08:30:14.682Z,26.29
2023-06-04T08:32:18.116Z,26.73
2023-06-04T08:34:21.115Z,26.61
2023-06-04T08:36:24.109Z,24.72
2023-06-04T08:38:27.063Z,26.65
2023-06-04T08:40:30.053Z,26.58
2023-06-04T08:42:33.740Z,25.54
2023-06-04T08:44:37.179Z,28.73
2023-06-04T08:46:42.592Z,24.92
2023-06-04T08:48:47.152Z,25.14
2023-06-04T08:50:51.531Z,26.06
2023-06-04T08:52:56.360Z,26.96
2023-06-04T08:55:00.356Z,25.93
2023-06-04T08:57:03.590Z,27.44
2023-06-04T08:59:08.458Z,27.23
2023-06-04T09:01:12.198Z,26.64
2023-06-04T09:03:18.304Z,26.76
2023-06-04T09:05:24.016Z,27.63
2023-06-04T09:07:27.388Z,27.91
2023-06-04T09:09:31.291Z,28.60
2023-06-04T09:11:36.527Z,28.90
2023-06-04T09:13:40.340Z,28.29
2023-06-04T09:15:43.470Z,28.65
2023-06-04T09:17:46.686Z,28.36
2023-06-04T09:19:51.712Z,28.84
2023-06-04T09:21:56.277Z,28.39
2023-06-04T09:24:00.395Z,28.10
2023-06-04T09:26:10.758Z,29.50
2023-06-04T09:28:13.713Z,29.83
2023-06-04T09:30:17.474Z,29.49
2023-06-04T09:32:24.447Z,30.36
2023-06-04T09:34:29.792Z,29.33
2023-06-04T09:36:34.461Z,27.80
2023-06-04T09:38:37.579Z,28.30
2023-06-04T09:40:42.279Z,29.48
2023-06-04T09:42:45.931Z,30.61
2023-06-04T09:44:48.858Z,29.37
2023-06-04T09:46:56.379Z,29.21
2023-06-04T09:49:03.383Z,29.79
2023-06-04T09:51:10.491Z,29.15
2023-06-04T09:53:21.399Z,29.62
2023-06-04T09:55:24.925Z,28.63
2023-06-04T09:57:27.893Z,27.90
2023-06-04T09:59:31.316Z,27.02
2023-06-04T10:01:34.728Z,27.40
2023-06-04T10:03:38.899Z,26.52
2023-06-04T10:05:42.196Z,27.86
2023-06-04T10:07:46.572Z,29.14
2023-06-04T10:09:51.250Z,29.15
2023-06-04T10:11:58.166Z,28.41
2023-06-04T10:14:05.051Z,27.75
2023-06-04T10:16:13.104Z,26.86
2023-06-04T10:18:21.599Z,27.54
2023-06-04T10:20:25.365Z,26.84
2023-06-04T10:22:28.283Z,27.19
2023-06-04T10:24:31.250Z,28.00
2023-06-04T10:26:36.564Z,27.28
2023-06-04T10:28:39.592Z,27.31
2023-06-04T10:30:42.472Z,27.96
2023-06-04T10:32:46.159Z,27.49
2023-06-04T10:34:49.445Z,27.32
2023-06-04T10:36:52.616Z,26.88
2023-06-04T10:38:57.169Z,27.09
2023-06-04T10:41:00.135Z,28.17
2023-06-04T10:43:08.296Z,27.45
2023-06-04T10:45:11.704Z,28.34
2023-06-04T10:47:20.826Z,27.64
2023-06-04T10:49:30.840Z,28.44
2023-06-04T10:51:34.776Z,27.30
2023-06-04T10:53:39.077Z,26.30
2023-06-04T10:55:46.054Z,26.43
2023-06-04T10:57:57.017Z,27.34
2023-06-04T11:00:02.007Z,27.35
2023-06-04T11:02:08.217Z,27.59
2023-06-04T11:04:20.925Z,27.69
2023-06-04T11:06:24.243Z,27.41
2023-06-04T11:08:31.148Z,28.38
2023-06-04T11:10:35.669Z,26.46
2023-06-04T11:12:44.430Z,27.28
2023-06-04T11:14:56.171Z,25.74
2023-06-04T11:17:11.605Z,26.39
2023-06-04T11:19:17.170Z,26.17
2023-06-04T11:21:20.150Z,26.58
2023-06-04T11:23:23.027Z,27.90
2023-06-04T11:25:27.566Z,27.62
2023-06-04T11:27:36.637Z,26.90
2023-06-04T11:29:39.947Z,27.17
2023-06-04T11:31:47.276Z,28.12
2023-06-04T11:33:51.883Z,28.25
2023-06-04T11:35:55.913Z,26.50
2023-06-04T11:37:59.949Z,26.21
2023-06-04T11:40:04.464Z,27.20
2023-06-04T11:42:08.373Z,26.65
2023-06-04T11:44:11.443Z,27.17
2023-06-04T11:46:14.814Z,26.83
2023-06-04T11:48:17.890Z,27.59
2023-06-04T11:50:22.833Z,27.61
2023-06-04T11:52:25.961Z,28.38
2023-06-04T11:54:28.853Z,26.69
2023-06-04T11:56:31.862Z,27.10
2023-06-04T11:58:35.182Z,28.11
2023-06-04T12:00:38.208Z,27.31
2023-06-04T12:02:52.218Z,26.67
2023-06-04T12:04:55.430Z,26.19
2023-06-04T12:07:01.305Z,27.90
2023-06-04T12:09:05.554Z,27.49
2023-06-04T12:11:08.606Z,27.42
2023-06-04T12:13:12.426Z,26.70
2023-06-04T12:15:21.528Z,25.62
2023-06-04T12:17:24.459Z,26.54
2023-06-04T12:19:28.116Z,26.33
2023-06-04T12:21:31.031Z,25.56
2023-06-04T12:23:35.327Z,25.93
2023-06-04T12:25:40.077Z,27.94
2023-06-04T12:27:49.415Z,27.70
2023-06-04T12:30:00.229Z,27.40
2023-06-04T12:32:11.944Z,26.55
2023-06-04T12:34:15.641Z,25.23
2023-06-04T12:36:18.516Z,26.59
2023-06-04T12:38:21.452Z,26.18
2023-06-04T12:40:25.749Z,26.27
2023-06-04T12:42:29.181Z,25.49
2023-06-04T12:44:34.628Z,26.92
2023-06-04T12:46:38.508Z,27.21
2023-06-04T12:48:41.573Z,25.94
2023-06-04T12:50:44.436Z,24.87
2023-06-04T12:52:47.358Z,25.51
2023-06-04T12:54:50.259Z,25.52
2023-06-04T12:56:54.567Z,24.05
2023-06-04T12:58:57.825Z,24.87
2023-06-04T13:01:00.764Z,24.61
2023-06-04T13:03:03.698Z,25.56
2023-06-04T13:05:07.052Z,23.17
2023-06-04T13:07:09.943Z,23.38
2023-06-04T13:09:12.874Z,23.93
2023-06-04T13:11:15.785Z,24.61
2023-06-04T13:13:20.236Z,24.81
2023-06-04T13:15:23.378Z,24.13
2023-06-04T13:17:26.304Z,23.89
2023-06-04T13:19:29.218Z,23.43
2023-06-04T13:21:32.440Z,23.44
2023-06-04T13:23:49.719Z,24.04
2023-06-04T13:25:53.977Z,23.79
2023-06-04T13:27:56.950Z,23.88
2023-06-04T13:30:01.285Z,24.13
2023-06-04T13:32:04.965Z,23.83
2023-06-04T13:34:25.785Z,23.34
2023-06-04T13:36:29.968Z,22.95
2023-06-04T13:38:32.932Z,24.63
2023-06-04T13:40:36.396Z,23.82
2023-06-04T13:42:39.392Z,24.58
2023-06-04T13:44:42.348Z,23.52
2023-06-04T13:46:46.768Z,23.69
2023-06-04T13:48:49.629Z,22.78
2023-06-04T13:50:52.998Z,22.04
2023-06-04T13:52:55.968Z,23.14
2023-06-04T13:54:59.563Z,23.53
2023-06-04T13:57:04.561Z,24.23
2023-06-04T13:59:07.644Z,24.74
2023-06-04T14:01:10.734Z,25.11
2023-06-04T14:03:15.433Z,24.64
2023-06-04T14:05:19.214Z,24.16
2023-06-04T14:07:22.478Z,24.76
2023-06-04T14:09:25.745Z,24.89
2023-06-04T14:11:28.770Z,25.49
2023-06-04T14:13:31.797Z,26.17
2023-06-04T14:15:34.717Z,25.25
2023-06-04T14:17:37.732Z,24.93
2023-06-04T14:19:42.577Z,24.61
2023-06-04T14:21:46.123Z,23.45
2023-06-04T14:23:51.532Z,24.98
2023-06-04T14:25:54.565Z,25.41
2023-06-04T14:27:57.573Z,26.66
2023-06-04T14:30:00.652Z,27.70
2023-06-04T14:32:04.043Z,27.93
2023-06-04T14:34:08.175Z,28.12
2023-06-04T14:36:12.497Z,27.26
2023-06-04T14:38:16.614Z,27.32
2023-06-04T14:40:19.783Z,27.71
2023-06-04T14:42:22.788Z,27.20
2023-06-04T14:44:25.958Z,26.74
2023-06-04T14:46:28.949Z,26.98
2023-06-04T14:48:31.979Z,27.65
2023-06-04T14:50:35.493Z,27.01
2023-06-04T14:52:39.842Z,28.05
2023-06-04T14:54:43.243Z,27.70
2023-06-04T14:56:46.202Z,28.36
2023-06-04T14:58:49.281Z,27.65
2023-06-04T15:00:52.650Z,27.22
2023-06-04T15:02:56.432Z,26.92
2023-06-04T15:04:59.647Z,27.00
2023-06-04T15:07:02.655Z,27.26
2023-06-04T15:09:07.523Z,27.97
2023-06-04T15:11:12.941Z,27.91
2023-06-04T15:13:16.062Z,27.98
2023-06-04T15:15:19.080Z,27.68
2023-06-04T15:17:22.202Z,27.88
2023-06-04T15:19:25.628Z,28.12
2023-06-04T15:21:28.959Z,27.90
2023-06-04T15:23:32.055Z,28.35
2023-06-04T15:25:36.392Z,27.48
2023-06-04T15:27:39.617Z,27.76
2023-06-04T15:29:42.728Z,27.63
2023-06-04T15:31:47.289Z,27.55
2023-06-04T15:33:50.361Z,28.32
2023-06-04T15:35:54.454Z,27.55
2023-06-04T15:37:57.668Z,27.14
2023-06-04T15:40:02.111Z,27.00
2023-06-04T15:42:09.254Z,27.22
2023-06-04T15:44:12.249Z,27.55
2023-06-04T15:46:15.337Z,26.71
2023-06-04T15:48:18.289Z,27.09
2023-06-04T15:50:21.650Z,25.90
2023-06-04T15:52:24.710Z,27.03
2023-06-04T15:54:44.373Z,27.02
2023-06-04T15:56:49.540Z,28.15
2023-06-04T15:58:53.832Z,27.71
2023-06-04T16:00:57.283Z,28.01
2023-06-04T16:03:01.509Z,28.06
2023-06-04T16:05:04.648Z,28.48
2023-06-04T16:07:07.575Z,28.07
2023-06-04T16:09:10.785Z,28.29
2023-06-04T16:11:13.768Z,28.31
2023-06-04T16:13:16.642Z,29.11
2023-06-04T16:15:20.905Z,28.89
2023-06-04T16:17:23.914Z,29.38
2023-06-04T16:19:27.071Z,29.54
2023-06-04T16:21:29.939Z,29.09
2023-06-04T16:23:32.844Z,29.58
2023-06-04T16:25:37.452Z,29.17
2023-06-04T16:27:40.355Z,29.63
2023-06-04T16:29:43.388Z,29.37
2023-06-04T16:31:47.697Z,30.31
2023-06-04T16:33:50.572Z,30.09
2023-06-04T16:35:53.687Z,29.87
2023-06-04T16:37:56.790Z,29.33
2023-06-04T16:39:59.763Z,29.45
2023-06-04T16:42:04.101Z,30.03
2023-06-04T16:44:06.996Z,29.52
2023-06-04T16:46:10.043Z,29.95
2023-06-04T16:48:14.487Z,30.54
2023-06-04T16:50:17.545Z,30.67
2023-06-04T16:52:20.416Z,29.81
2023-06-04T16:54:23.308Z,30.40
2023-06-04T16:56:26.176Z,30.34
2023-06-04T16:58:29.054Z,30.75
2023-06-04T17:00:32.109Z,30.29
2023-06-04T17:02:35.073Z,30.71
2023-06-04T17:04:39.340Z,30.69
2023-06-04T17:06:42.178Z,30.90
2023-06-04T17:08:45.047Z,31.06
2023-06-04T17:10:48.423Z,31.30
2023-06-04T17:12:51.331Z,30.23
2023-06-04T17:14:54.257Z,31.00
2023-06-04T17:16:57.403Z,30.51
2023-06-04T17:19:00.361Z,30.63
2023-06-04T17:21:04.774Z,30.87
2023-06-04T17:23:20.776Z,30.26
2023-06-04T17:25:25.047Z,30.71
2023-06-04T17:27:28.223Z,30.64
2023-06-04T17:29:31.110Z,31.09
2023-06-04T17:31:34.063Z,31.25
2023-06-04T17:33:36.956Z,30.46
2023-06-04T17:35:40.590Z,30.77
2023-06-04T17:37:46.100Z,31.00
2023-06-04T17:39:49.178Z,30.99
2023-06-04T17:41:52.101Z,31.92
2023-06-04T17:43:55.890Z,31.85
2023-06-04T17:46:00.335Z,32.31
2023-06-04T17:48:03.438Z,31.80
2023-06-04T17:50:08.112Z,32.59
2023-06-04T17:52:11.273Z,33.18
2023-06-04T17:54:16.089Z,34.62
2023-06-04T17:56:19.032Z,32.91
2023-06-04T17:58:22.319Z,33.44
2023-06-04T18:00:25.254Z,33.22
2023-06-04T18:06:02.508Z,34.38
2023-06-04T18:08:05.542Z,34.67
2023-06-04T18:10:11.793Z,34.91
2023-06-04T18:12:14.705Z,35.48
2023-06-04T18:14:17.819Z,35.19
2023-06-04T18:16:21.043Z,35.30
2023-06-04T18:18:25.015Z,35.72
2023-06-04T18:20:27.925Z,34.83
2023-06-04T18:22:31.151Z,35.17
2023-06-04T18:24:34.749Z,35.39
2023-06-04T18:26:39.014Z,35.00
2023-06-04T18:28:42.007Z,36.11
2023-06-04T18:30:44.927Z,35.20
2023-06-04T18:32:48.890Z,35.55
2023-06-04T18:34:52.006Z,35.18
2023-06-04T18:36:54.990Z,35.48
2023-06-04T18:38:57.996Z,35.35
2023-06-04T18:41:00.904Z,36.06
2023-06-04T18:43:05.517Z,35.68
2023-06-04T18:45:10.390Z,35.88
2023-06-04T18:47:13.386Z,35.96
2023-06-04T18:49:16.290Z,36.36
2023-06-04T18:51:19.545Z,36.22
2023-06-04T18:53:22.487Z,36.30
2023-06-04T18:55:25.399Z,36.18
2023-06-04T18:57:28.442Z,36.23
2023-06-04T18:59:32.696Z,36.40
2023-06-04T19:01:35.665Z,36.65
2023-06-04T19:03:38.595Z,36.65
2023-06-04T19:05:41.499Z,36.43
2023-06-04T19:07:44.427Z,37.05
2023-06-04T19:09:47.354Z,36.84
2023-06-04T19:11:50.339Z,37.35
2023-06-04T19:13:53.852Z,37.01
2023-06-04T19:15:58.128Z,38.91
2023-06-04T19:18:01.139Z,38.01
2023-06-04T19:20:04.300Z,37.65
2023-06-04T19:22:07.180Z,38.00
2023-06-04T19:24:10.315Z,37.62
2023-06-04T19:26:13.542Z,38.32
2023-06-04T19:28:18.555Z,37.78
2023-06-04T19:30:24.525Z,38.06
2023-06-04T19:32:29.641Z,39.43
2023-06-04T19:34:32.527Z,39.07
2023-06-04T19:36:36.189Z,38.79
2023-06-04T19:38:42.480Z,38.95
2023-06-04T19:40:45.458Z,39.62
2023-06-04T19:42:48.317Z,39.83
2023-06-04T19:44:51.312Z,39.55
2023-06-04T19:46:54.235Z,41.33
2023-06-04T19:48:59.593Z,40.03
2023-06-04T19:51:02.685Z,40.17
2023-06-04T19:53:05.555Z,40.55
2023-06-04T19:55:10.935Z,40.79
2023-06-04T19:57:13.802Z,40.57
2023-06-04T19:59:17.379Z,41.23
2023-06-04T20:01:20.331Z,42.71
2023-06-04T20:03:24.238Z,41.37
2023-06-04T20:05:28.591Z,41.72
2023-06-04T20:07:31.504Z,41.45
2023-06-04T20:09:34.625Z,43.06
2023-06-04T20:11:37.790Z,43.64
2023-06-04T20:13:41.642Z,44.59
2023-06-04T20:15:44.748Z,44.87
2023-06-04T20:17:49.037Z,45.10
2023-06-04T20:19:52.195Z,46.85
2023-06-04T20:21:56.791Z,46.20
2023-06-04T20:24:00.347Z,47.79
2023-06-04T20:26:03.405Z,48.93
2023-06-04T20:28:06.482Z,50.81
2023-06-04T20:30:11.675Z,50.76
2023-06-04T20:32:14.576Z,49.81
2023-06-04T20:34:18.307Z,51.95
2023-06-04T20:36:22.682Z,53.79
2023-06-04T20:38:27.025Z,53.41
2023-06-04T20:40:30.131Z,51.15
2023-06-04T20:42:33.044Z,53.06
2023-06-04T20:44:35.965Z,54.91
2023-06-04T20:46:38.941Z,55.64
2023-06-04T20:48:41.925Z,55.80
2023-06-04T20:50:44.929Z,64.01
2023-06-04T20:52:47.872Z,61.82
2023-06-04T20:54:52.542Z,64.56
2023-06-04T20:56:55.502Z,64.62
2023-06-04T20:58:58.474Z,67.63
2023-06-04T21:01:01.563Z,69.67
2023-06-04T21:03:04.685Z,72.19
2023-06-04T21:05:09.180Z,76.00
2023-06-04T21:07:13.281Z,78.39
2023-06-04T21:09:16.267Z,79.74
2023-06-04T21:11:20.539Z,78.55
2023-06-04T21:13:23.464Z,80.43
2023-06-04T21:15:26.549Z,84.38
2023-06-04T21:17:29.824Z,83.64
2023-06-04T21:19:32.756Z,83.41
2023-06-04T21:21:35.678Z,84.99
2023-06-04T21:23:38.739Z,89.11
2023-06-04T21:25:41.637Z,94.95
2023-06-04T21:27:47.559Z,92.04
2023-06-04T21:29:51.993Z,90.63
2023-06-04T21:31:55.045Z,92.09
2023-06-04T21:33:58.052Z,90.56
2023-06-04T21:36:00.983Z,89.27
2023-06-04T21:38:04.151Z,85.57
2023-06-04T21:40:08.178Z,76.88
2023-06-04T21:42:11.092Z,77.12
2023-06-04T21:44:15.306Z,73.87
2023-06-04T21:46:19.079Z,75.65
2023-06-04T21:48:22.019Z,75.32
2023-06-04T21:50:24.927Z,77.35
2023-06-04T21:52:27.823Z,81.65
2023-06-04T21:54:30.687Z,87.99
2023-06-04T21:56:33.609Z,97.69
2023-06-04T21:58:36.560Z,100.00
2023-06-04T22:00:41.036Z,100.00
2023-06-04T22:02:44.060Z,100.00
2023-06-04T22:04:47.013Z,100.00
2023-06-04T22:06:49.906Z,100.00
2023-06-04T22:08:52.821Z,100.00
2023-06-04T22:10:56.109Z,100.00
2023-06-04T22:12:59.020Z,100.00
2023-06-04T22:15:02.119Z,100.00
2023-06-04T22:17:06.678Z,100.00
2023-06-04T22:19:09.555Z,100.00
2023-06-04T22:21:12.448Z,100.00
2023-06-04T22:23:15.855Z,100.00
2023-06-04T22:25:18.756Z,100.00
2023-06-04T22:27:21.703Z,100.00
2023-06-04T22:29:24.603Z,100.00
2023-06-04T22:31:27.485Z,100.00
2023-06-04T22:33:32.077Z,100.00
2023-06-04T22:35:34.947Z,100.00
2023-06-04T22:37:37.865Z,100.00
2023-06-04T22:39:40.785Z,100.00
2023-06-04T22:41:43.709Z,100.00
2023-06-04T22:43:46.609Z,100.00
2023-06-04T22:45:49.642Z,100.00
2023-06-04T22:47:52.618Z,100.00
2023-06-04T22:49:56.875Z,100.00
2023-06-04T22:51:59.969Z,100.00
2023-06-04T22:54:02.877Z,100.00
2023-06-04T22:56:07.780Z,100.00
2023-06-04T22:58:13.083Z,100.00
2023-06-04T23:00:16.184Z,100.00
2023-06-04T23:02:19.394Z,100.00
2023-06-04T23:04:22.330Z,100.00
2023-06-04T23:06:26.580Z,100.00
2023-06-04T23:08:29.605Z,100.00
2023-06-04T23:10:32.533Z,100.00
2023-06-04T23:12:35.891Z,100.00
2023-06-04T23:14:39.073Z,100.00
2023-06-04T23:16:42.673Z,100.00
2023-06-04T23:18:45.955Z,100.00
2023-06-04T23:20:49.141Z,100.00
2023-06-04T23:22:53.412Z,100.00
2023-06-04T23:24:57.409Z,100.00
2023-06-04T23:27:00.297Z,100.00
2023-06-04T23:29:03.727Z,100.00
2023-06-04T23:31:06.715Z,100.00
2023-06-04T23:33:09.782Z,100.00
2023-06-04T23:35:12.813Z,100.00
2023-06-04T23:37:15.680Z,100.00
2023-06-04T23:39:20.052Z,100.00
2023-06-04T23:41:22.921Z,100.00
2023-06-04T23:43:25.914Z,100.00
2023-06-04T23:45:28.945Z,100.00
2023-06-04T23:47:31.880Z,100.00
2023-06-04T23:49:34.810Z,100.00
2023-06-04T23:51:37.682Z,100.00
2023-06-04T23:53:40.593Z,100.00
2023-06-04T23:55:44.904Z,100.00
2023-06-04T23:57:48.084Z,100.00
2023-06-04T23:59:51.254Z,100.00
